Time;durP1;ratioP1;P1;durP2;ratioP2;P2;SDS_P1;SDS_P2;PMS_P1;PMS_P2;Temp;Humidity;BMP_temperature;BMP_pressure;BME280_temperature;BME280_humidity;BME280_pressure;Samples;Min_cycle;Max_cycle;Signal;HPM_P1;HPM_P2
2024/01/08 00:01:39;;;;;;;4.38;3.97;;;;;;;-0.43;64.49;102760.63;3612457;39;20061;-66
2024/01/08 00:04:09;;;;;;;6.00;4.00;;;;;;;-1.06;64.96;102665.50;3611706;39;20094;-67
2024/01/08 00:06:35;;;;;;;7.88;4.10;;;;;;;-0.47;65.40;102760.59;3611775;39;20047;-66
2024/01/08 00:09:00;;;;;;;4.60;4.18;;;;;;;-0.51;65.34;102757.84;3611212;39;20067;-67
2024/01/08 00:11:26;;;;;;;5.47;4.43;;;;;;;-0.55;64.49;102751.63;3611188;39;20401;-67
2024/01/08 00:13:51;;;;;;;5.35;4.40;;;;;;;-0.50;64.62;102760.53;3611409;39;20051;-66
2024/01/08 00:16:17;;;;;;;5.18;4.07;;;;;;;-0.50;64.44;102759.66;3610732;39;20059;-67
2024/01/08 00:18:43;;;;;;;6.55;4.57;;;;;;;-0.50;64.96;102772.88;3611438;39;20280;-66
2024/01/08 00:21:08;;;;;;;5.57;4.47;;;;;;;-0.44;63.43;102765.03;3611481;39;20046;-67
2024/01/08 00:23:35;;;;;;;6.07;4.80;;;;;;;-0.43;64.52;102772.09;3612181;39;20055;-66
2024/01/08 00:26:00;;;;;;;6.55;5.35;;;;;;;-0.43;64.53;102774.72;3610859;39;20104;-67
2024/01/08 00:28:26;;;;;;;8.73;6.18;;;;;;;-0.49;63.05;102761.41;3612629;39;20315;-67
2024/01/08 00:30:52;;;;;;;9.32;6.43;;;;;;;-0.48;62.85;102765.81;3611140;39;20058;-66
2024/01/08 00:33:18;;;;;;;9.02;6.70;;;;;;;-0.45;63.10;102762.34;3610369;39;20051;-67
2024/01/08 00:35:43;;;;;;;9.93;6.88;;;;;;;-0.49;64.57;102772.00;3609971;39;20295;-67
2024/01/08 00:38:09;;;;;;;12.82;8.10;;;;;;;-0.42;63.39;102763.28;3610290;39;20058;-66
2024/01/08 00:40:35;;;;;;;12.23;7.90;;;;;;;-0.41;63.04;102762.44;3612694;39;20054;-66
2024/01/08 00:43:00;;;;;;;10.88;6.82;;;;;;;-0.41;64.36;102765.06;3612074;39;20310;-66
2024/01/08 00:45:26;;;;;;;9.98;7.68;;;;;;;-0.41;63.91;102765.06;3612676;39;20299;-66
2024/01/08 00:47:52;;;;;;;13.43;8.38;;;;;;;-0.42;64.40;102760.63;3610226;39;20055;-67
2024/01/08 00:50:18;;;;;;;11.73;8.60;;;;;;;-0.44;64.33;102772.97;3610553;39;20050;-66
2024/01/08 00:52:44;;;;;;;11.25;7.68;;;;;;;-0.42;64.91;102770.31;3612197;39;20055;-66
2024/01/08 00:55:11;;;;;;;11.75;7.18;;;;;;;-0.46;64.46;102766.75;3608720;39;20089;-66
2024/01/08 00:57:39;;;;;;;11.13;7.75;;;;;;;-0.47;65.27;102764.97;3612828;39;20371;-63
2024/01/08 01:00:06;;;;;;;11.80;8.20;;;;;;;-0.44;64.61;102759.75;3611385;39;20063;-65
2024/01/08 01:02:32;;;;;;;11.70;8.55;;;;;;;-0.41;65.52;102759.78;3612449;39;20058;-64
2024/01/08 01:04:58;;;;;;;14.73;8.38;;;;;;;-0.38;64.67;102759.84;3611273;39;20054;-64
2024/01/08 01:07:24;;;;;;;16.80;11.27;;;;;;;-0.37;65.38;102758.97;3612072;39;20403;-64
2024/01/08 01:09:50;;;;;;;18.70;11.45;;;;;;;-0.28;65.02;102769.66;3611737;39;20058;-64
2024/01/08 01:12:16;;;;;;;16.90;12.00;;;;;;;-0.29;63.68;102770.50;3612332;39;20153;-64
2024/01/08 01:14:41;;;;;;;20.55;11.68;;;;;;;-0.26;62.96;102772.31;3611341;39;20130;-64
2024/01/08 01:17:07;;;;;;;20.80;12.23;;;;;;;-0.31;62.93;102772.25;3610402;39;20093;-64
2024/01/08 01:19:33;;;;;;;19.45;12.13;;;;;;;-0.30;63.72;102776.66;3609773;39;20058;-65
2024/01/08 01:21:59;;;;;;;20.85;12.35;;;;;;;-0.28;63.97;102777.59;3611157;39;20050;-65
2024/01/08 01:24:25;;;;;;;20.83;12.77;;;;;;;-0.29;64.12;102775.78;3612901;39;20043;-65
2024/01/08 01:26:50;;;;;;;22.25;13.73;;;;;;;-0.34;63.78;102772.22;3611042;39;20061;-65
2024/01/08 01:29:16;;;;;;;21.30;12.63;;;;;;;-0.31;63.40;102777.56;3611549;39;20070;-65
2024/01/08 01:31:42;;;;;;;21.40;12.18;;;;;;;-0.36;64.85;102768.66;3611179;39;20066;-65
2024/01/08 01:34:10;;;;;;;17.27;11.75;;;;;;;-0.32;64.65;102774.88;3610065;39;20560;-65
2024/01/08 01:36:37;;;;;;;19.10;11.95;;;;;;;-0.32;64.71;102773.13;3610634;39;20054;-65
2024/01/08 01:39:04;;;;;;;16.98;10.02;;;;;;;-0.48;63.48;102739.41;3611724;39;20063;-66
2024/01/08 01:41:33;;;;;;;14.68;9.10;;;;;;;-0.30;63.23;102778.44;3611826;39;20202;-65
2024/01/08 01:43:59;;;;;;;13.88;9.43;;;;;;;-0.32;62.39;102769.59;3610788;39;20065;-65
2024/01/08 01:46:48;;;;;;;11.38;8.32;;;;;;;-0.35;62.37;102770.47;3611419;39;20315;-65
2024/01/08 01:49:23;;;;;;;11.60;7.72;;;;;;;-0.43;62.43;102748.31;3612465;39;20051;-65
2024/01/08 01:51:50;;;;;;;10.45;6.72;;;;;;;-0.39;62.03;102773.00;3602781;39;20055;-65
2024/01/08 01:54:21;;;;;;;10.77;7.07;;;;;;;-0.47;61.18;102770.25;3611916;39;20054;-65
2024/01/08 01:56:51;;;;;;;9.95;6.70;;;;;;;-0.39;62.06;102773.00;3610939;39;20335;-64
2024/01/08 01:59:20;;;;;;;10.32;6.90;;;;;;;-0.43;62.79;102772.09;3609648;39;20055;-65
2024/01/08 02:01:46;;;;;;;8.98;6.60;;;;;;;-0.40;62.50;102776.53;3611890;39;20147;-66
2024/01/08 02:04:16;;;;;;;10.70;6.63;;;;;;;-0.39;61.93;102776.53;3611529;39;20380;-65
2024/01/08 02:06:45;;;;;;;9.55;6.10;;;;;;;-0.45;62.43;102779.09;3611686;39;20403;-65
2024/01/08 02:09:16;;;;;;;12.25;6.80;;;;;;;-0.41;61.93;102783.56;3610750;39;20308;-66
2024/01/08 02:11:43;;;;;;;8.73;6.30;;;;;;;-0.47;62.55;102775.56;3611697;39;20372;-65
2024/01/08 02:14:10;;;;;;;7.07;5.88;;;;;;;-0.44;61.91;102780.88;3611102;39;20097;-65
2024/01/08 02:16:36;;;;;;;7.53;6.13;;;;;;;-0.40;61.50;102782.69;3610574;39;20300;-66
2024/01/08 02:19:03;;;;;;;7.80;5.53;;;;;;;-0.57;61.40;102752.47;3608804;39;20058;-65
2024/01/08 02:21:28;;;;;;;7.78;6.28;;;;;;;-0.40;62.25;102782.69;3610966;39;20050;-66
2024/01/08 02:23:54;;;;;;;7.75;6.10;;;;;;;-0.41;63.09;102786.22;3609344;39;20054;-66
2024/01/08 02:26:21;;;;;;;7.18;5.72;;;;;;;-0.41;63.28;102791.50;3609288;39;20063;-65
2024/01/08 02:28:47;;;;;;;7.00;5.68;;;;;;;-0.45;63.25;102786.13;3609929;39;20055;-66
2024/01/08 02:31:12;;;;;;;6.40;5.63;;;;;;;-0.44;62.96;102787.88;3612443;39;20081;-65
2024/01/08 02:33:38;;;;;;;9.23;5.65;;;;;;;-0.44;63.83;102780.88;3610733;39;20062;-66
2024/01/08 02:36:04;;;;;;;5.40;4.88;;;;;;;-0.44;63.51;102783.53;3609827;39;20287;-66
2024/01/08 02:38:29;;;;;;;5.95;4.97;;;;;;;-0.50;64.09;102792.22;3610274;39;20055;-65
2024/01/08 02:40:57;;;;;;;5.60;4.68;;;;;;;-0.59;63.25;102762.16;3610010;39;20061;-65
2024/01/08 02:43:24;;;;;;;5.13;4.63;;;;;;;-0.59;63.19;102785.94;3610937;39;20059;-65
2024/01/08 02:45:49;;;;;;;5.38;4.35;;;;;;;-0.67;63.34;102792.81;3610578;39;20062;-66
2024/01/08 02:48:15;;;;;;;5.47;4.40;;;;;;;-0.79;64.46;102804.09;3612271;39;20303;-65
2024/01/08 02:50:41;;;;;;;5.25;4.47;;;;;;;-0.91;64.75;102788.91;3613141;39;20043;-65
2024/01/08 02:53:06;;;;;;;4.72;4.25;;;;;;;-0.86;65.33;102808.34;3612529;39;21414;-66
2024/01/08 02:55:32;;;;;;;6.15;4.50;;;;;;;-0.94;65.29;102808.22;3613811;39;20387;-65
2024/01/08 02:57:58;;;;;;;5.05;4.38;;;;;;;-1.27;64.79;102766.31;3610679;39;20050;-65
2024/01/08 03:00:23;;;;;;;4.70;4.30;;;;;;;-1.08;65.08;102814.09;3612336;39;20294;-65
2024/01/08 03:02:49;;;;;;;4.50;4.03;;;;;;;-1.08;65.77;102824.66;3612283;39;20058;-65
2024/01/08 03:05:14;;;;;;;5.05;4.18;;;;;;;-1.17;66.04;102818.38;3612061;39;20055;-67
2024/01/08 03:07:40;;;;;;;7.07;4.45;;;;;;;-1.22;66.42;102814.75;3613941;39;20058;-66
2024/01/08 03:10:06;;;;;;;5.53;4.50;;;;;;;-1.25;65.66;102808.53;3611702;39;20054;-66
2024/01/08 03:12:32;;;;;;;6.35;4.47;;;;;;;-1.27;66.13;102813.78;3613213;39;20058;-65
2024/01/08 03:14:57;;;;;;;7.70;4.45;;;;;;;-1.41;66.10;102796.78;3611721;39;20058;-66
2024/01/08 03:17:23;;;;;;;4.75;4.07;;;;;;;-1.39;66.19;102816.19;3612083;39;20098;-65
2024/01/08 03:19:49;;;;;;;5.97;4.32;;;;;;;-1.37;66.71;102809.19;3611553;39;20178;-66
2024/01/08 03:22:15;;;;;;;5.00;4.43;;;;;;;-1.39;66.09;102804.75;3613033;39;20074;-65
2024/01/08 03:24:40;;;;;;;6.07;4.57;;;;;;;-1.43;66.19;102806.41;3613932;39;20058;-65
2024/01/08 03:27:06;;;;;;;5.88;4.72;;;;;;;-1.39;66.43;102807.41;3610301;39;20063;-66
2024/01/08 03:29:31;;;;;;;6.20;4.43;;;;;;;-1.48;67.23;102785.25;3613238;39;20387;-65
2024/01/08 03:31:57;;;;;;;5.50;4.60;;;;;;;-1.36;66.58;102813.63;3611098;39;20063;-65
2024/01/08 03:34:23;;;;;;;6.18;4.45;;;;;;;-1.41;66.26;102807.34;3612528;39;20051;-66
2024/01/08 03:36:50;;;;;;;5.72;4.47;;;;;;;-1.39;67.60;102804.75;3612832;39;20043;-66
2024/01/08 03:39:17;;;;;;;6.15;4.78;;;;;;;-1.36;67.09;102810.97;3611948;39;20051;-66
2024/01/08 03:41:44;;;;;;;6.03;4.65;;;;;;;-1.32;66.83;102812.81;3612614;39;20483;-66
2024/01/08 03:44:10;;;;;;;5.82;4.43;;;;;;;-1.32;67.91;102809.28;3612173;39;20066;-66
2024/01/08 03:46:38;;;;;;;6.55;5.10;;;;;;;-1.24;67.08;102815.56;3612253;39;20073;-66
2024/01/08 03:49:04;;;;;;;7.13;4.55;;;;;;;-1.22;67.55;102813.88;3610363;39;20067;-66
2024/01/08 03:51:36;;;;;;;8.00;5.07;;;;;;;-1.23;67.76;102817.38;3614121;39;20046;-66
2024/01/08 03:54:02;;;;;;;6.45;4.88;;;;;;;-1.20;67.58;102818.31;3611528;39;20119;-65
2024/01/08 03:56:28;;;;;;;7.18;5.32;;;;;;;-1.19;67.12;102814.81;3614200;39;20051;-66
2024/01/08 03:58:53;;;;;;;6.53;5.05;;;;;;;-1.25;67.61;102793.59;3611641;39;20067;-66
2024/01/08 04:01:19;;;;;;;5.55;4.65;;;;;;;-1.09;67.93;102822.91;3611339;39;20051;-65
2024/01/08 04:03:44;;;;;;;7.25;4.90;;;;;;;-1.10;68.40;102818.50;3613343;39;20398;-66
2024/01/08 04:06:10;;;;;;;6.28;4.90;;;;;;;-1.10;68.33;102815.84;3611987;39;20059;-66
2024/01/08 04:08:36;;;;;;;6.55;4.47;;;;;;;-1.09;68.84;102817.63;3613697;39;20417;-66
2024/01/08 04:11:03;;;;;;;5.20;4.53;;;;;;;-1.05;67.66;102817.69;3610494;39;20375;-66
2024/01/08 04:13:30;;;;;;;6.05;4.65;;;;;;;-1.04;68.49;102818.59;3611907;39;20047;-66
2024/01/08 04:15:56;;;;;;;10.75;4.85;;;;;;;-1.02;68.56;102816.88;3613189;39;20062;-66
2024/01/08 04:18:21;;;;;;;5.20;4.53;;;;;;;-1.00;68.39;102817.78;3612281;39;20075;-66
2024/01/08 04:20:47;;;;;;;5.30;4.70;;;;;;;-1.03;68.29;102818.63;3613550;39;20292;-66
2024/01/08 04:23:13;;;;;;;6.03;4.68;;;;;;;-1.03;67.53;102815.09;3612850;39;20062;-66
2024/01/08 04:25:38;;;;;;;6.65;4.95;;;;;;;-1.03;68.18;102815.09;3611227;39;20055;-65
2024/01/08 04:28:04;;;;;;;7.40;4.88;;;;;;;-1.06;68.99;102809.75;3612835;39;20050;-66
2024/01/08 04:30:30;;;;;;;5.22;4.72;;;;;;;-0.96;68.83;102816.97;3613106;39;20046;-65
2024/01/08 04:32:55;;;;;;;5.70;4.85;;;;;;;-0.95;67.57;102811.75;3613728;39;20061;-65
2024/01/08 04:35:21;;;;;;;6.38;4.55;;;;;;;-0.93;68.80;102817.03;3611779;39;20063;-66
2024/01/08 04:37:47;;;;;;;5.97;4.90;;;;;;;-0.92;68.75;102813.53;3613700;39;20047;-65
2024/01/08 04:40:14;;;;;;;5.80;4.85;;;;;;;-0.94;67.37;102807.34;3610932;39;20055;-65
2024/01/08 04:42:39;;;;;;;7.78;4.60;;;;;;;-0.94;67.39;102810.88;3612279;39;20061;-65
2024/01/08 04:45:05;;;;;;;7.45;4.88;;;;;;;-0.93;67.42;102810.00;3611282;39;20285;-65
2024/01/08 04:47:31;;;;;;;6.03;4.70;;;;;;;-0.92;68.60;102802.97;3611381;39;20054;-65
2024/01/08 04:49:56;;;;;;;7.60;5.18;;;;;;;-0.88;67.79;102811.84;3612477;39;20050;-66
2024/01/08 04:52:22;;;;;;;5.50;4.28;;;;;;;-0.91;67.01;102812.69;3612197;39;20065;-65
2024/01/08 04:54:49;;;;;;;5.15;4.53;;;;;;;-0.90;68.05;102810.94;3613576;39;20245;-65
2024/01/08 04:57:14;;;;;;;5.38;4.57;;;;;;;-0.91;67.42;102806.53;3611499;39;20127;-65
2024/01/08 04:59:41;;;;;;;6.40;4.18;;;;;;;-0.89;67.63;102815.34;3613261;39;20058;-65
2024/01/08 05:02:08;;;;;;;5.45;4.65;;;;;;;-0.89;67.23;102807.41;3611012;39;20179;-65
2024/01/08 05:04:34;;;;;;;5.45;4.13;;;;;;;-0.88;67.50;102815.38;3612216;39;20051;-65
2024/01/08 05:06:59;;;;;;;5.55;4.10;;;;;;;-0.86;67.34;102816.28;3609061;39;20066;-65
2024/01/08 05:09:25;;;;;;;5.22;4.35;;;;;;;-0.86;67.07;102808.34;3609074;39;20067;-66
2024/01/08 05:11:51;;;;;;;5.90;4.53;;;;;;;-0.85;68.06;102810.16;3612340;39;20310;-65
2024/01/08 05:14:16;;;;;;;5.63;4.68;;;;;;;-0.85;67.53;102812.78;3595136;39;20051;-64
2024/01/08 05:16:42;;;;;;;7.45;5.00;;;;;;;-1.05;68.10;102770.19;3610761;39;20400;-64
2024/01/08 05:19:08;;;;;;;7.07;4.40;;;;;;;-0.83;67.45;102808.41;3608184;39;20335;-64
2024/01/08 05:21:34;;;;;;;7.32;4.25;;;;;;;-0.84;67.67;102814.56;3607373;39;20055;-65
2024/01/08 05:23:59;;;;;;;6.93;4.93;;;;;;;-0.80;68.09;102808.47;3610177;39;20058;-65
2024/01/08 05:26:25;;;;;;;5.90;4.47;;;;;;;-0.81;68.17;102804.03;3606969;39;20175;-65
2024/01/08 05:28:52;;;;;;;6.03;4.50;;;;;;;-0.82;68.29;102807.56;3610791;39;20038;-65
2024/01/08 05:31:18;;;;;;;5.97;4.63;;;;;;;-0.79;68.95;102810.25;3609600;39;20375;-66
2024/01/08 05:33:44;;;;;;;10.77;5.05;;;;;;;-0.81;69.67;102806.69;3611439;39;20062;-65
2024/01/08 05:36:09;;;;;;;7.72;5.00;;;;;;;-0.81;68.90;102804.03;3611476;39;20132;-66
2024/01/08 05:38:36;;;;;;;8.15;4.97;;;;;;;-0.84;70.12;102798.72;3610374;39;20054;-65
2024/01/08 05:41:02;;;;;;;7.93;5.68;;;;;;;-0.71;70.36;102802.44;3611396;39;20124;-65
2024/01/08 05:43:27;;;;;;;6.60;4.72;;;;;;;-0.72;70.12;102798.94;3610361;39;20295;-65
2024/01/08 05:45:53;;;;;;;6.68;5.00;;;;;;;-0.75;69.56;102806.78;3609826;39;20319;-66
2024/01/08 05:48:19;;;;;;;9.25;5.68;;;;;;;-0.75;70.32;102809.44;3610572;39;20058;-65
2024/01/08 05:50:46;;;;;;;6.75;5.05;;;;;;;-0.82;70.61;102794.38;3611892;39;20058;-65
2024/01/08 05:53:13;;;;;;;6.15;4.97;;;;;;;-0.82;69.67;102794.38;3607448;39;20394;-65
2024/01/08 05:55:38;;;;;;;7.63;4.78;;;;;;;-0.75;70.64;102801.50;3612798;39;20105;-64
2024/01/08 05:58:04;;;;;;;6.43;4.82;;;;;;;-1.03;70.90;102762.31;3608191;39;20090;-65
2024/01/08 06:00:30;;;;;;;6.80;4.85;;;;;;;-0.75;71.22;102804.16;3609677;39;20059;-65
2024/01/08 06:02:56;;;;;;;7.15;4.95;;;;;;;-0.75;71.09;102800.63;3609510;39;20047;-65
2024/01/08 06:05:22;;;;;;;6.80;5.32;;;;;;;-0.73;70.33;102802.44;3608001;39;20294;-65
2024/01/08 06:07:48;;;;;;;9.00;5.85;;;;;;;-0.73;70.76;102810.34;3608970;39;20066;-65
2024/01/08 06:10:14;;;;;;;7.38;5.70;;;;;;;-0.71;70.58;102803.34;3608586;39;20138;-64
2024/01/08 06:12:40;;;;;;;7.60;5.72;;;;;;;-0.73;71.36;102799.78;3610079;39;20047;-65
2024/01/08 06:15:06;;;;;;;9.10;6.20;;;;;;;-0.73;71.05;102802.44;3605360;39;20055;-64
2024/01/08 06:17:31;;;;;;;7.00;5.18;;;;;;;-0.67;71.18;102803.38;3605688;39;20120;-65
2024/01/08 06:19:57;;;;;;;7.85;5.88;;;;;;;-0.69;71.15;102802.50;3610121;39;20054;-65
2024/01/08 06:22:23;;;;;;;10.43;6.22;;;;;;;-0.67;71.85;102793.69;3605356;39;20066;-65
2024/01/08 06:24:48;;;;;;;10.15;6.47;;;;;;;-0.84;71.92;102764.41;3610223;39;20405;-65
2024/01/08 06:27:14;;;;;;;8.52;5.97;;;;;;;-0.65;71.79;102797.28;3609200;39;20066;-65
2024/01/08 06:29:40;;;;;;;10.23;6.20;;;;;;;-0.62;71.12;102791.16;3612731;39;20062;-65
2024/01/08 06:32:06;;;;;;;9.25;6.53;;;;;;;-0.58;72.20;102798.25;3611272;39;20047;-65
2024/01/08 06:34:31;;;;;;;8.52;5.82;;;;;;;-0.64;71.58;102787.59;3610156;39;20128;-65
2024/01/08 06:36:57;;;;;;;10.82;6.05;;;;;;;-0.58;71.13;102798.25;3611286;39;20065;-64
2024/01/08 06:39:24;;;;;;;8.40;5.80;;;;;;;-0.57;70.80;102795.66;3610111;39;20118;-65
2024/01/08 06:41:49;;;;;;;8.02;5.78;;;;;;;-0.77;71.14;102762.75;3610207;39;20322;-64
2024/01/08 06:44:15;;;;;;;8.60;6.03;;;;;;;-0.60;71.98;102794.69;3609465;39;20074;-64
2024/01/08 06:46:41;;;;;;;8.90;6.22;;;;;;;-0.57;72.64;102797.38;3604540;39;20047;-65
2024/01/08 06:49:08;;;;;;;9.10;6.47;;;;;;;-0.52;71.79;102795.72;3604957;39;20055;-65
2024/01/08 06:51:40;;;;;;;7.22;6.05;;;;;;;-0.48;71.76;102800.16;3606250;39;20043;-65
2024/01/08 06:54:07;;;;;;;8.85;6.22;;;;;;;-0.40;71.89;102797.66;3604686;39;20055;-64
2024/01/08 06:56:32;;;;;;;8.27;6.50;;;;;;;-0.40;72.83;102797.66;3605214;39;20042;-65
2024/01/08 06:59:01;;;;;;;8.13;6.10;;;;;;;-0.46;72.49;102787.88;3607048;39;20055;-65
2024/01/08 07:01:28;;;;;;;7.97;5.95;;;;;;;-0.58;72.24;102766.56;3605854;39;20055;-65
2024/01/08 07:03:54;;;;;;;9.00;6.22;;;;;;;-0.38;71.72;102794.19;3606257;39;20087;-64
2024/01/08 07:06:20;;;;;;;9.20;6.07;;;;;;;-0.39;72.38;102800.31;3604146;39;20050;-65
2024/01/08 07:08:45;;;;;;;9.07;6.40;;;;;;;-0.38;72.53;102799.47;3609715;39;20085;-65
2024/01/08 07:11:24;;;;;;;8.82;6.70;;;;;;;-0.40;71.81;102798.53;3607482;39;20055;-65
2024/01/08 07:13:51;;;;;;;8.90;6.45;;;;;;;-0.45;72.86;102794.94;3605867;39;20044;-65
2024/01/08 07:16:18;;;;;;;11.27;7.03;;;;;;;-0.38;72.10;102804.75;3605902;39;20043;-65
2024/01/08 07:18:45;;;;;;;9.48;6.55;;;;;;;-0.60;72.52;102768.28;3607065;39;20059;-65
2024/01/08 07:21:13;;;;;;;9.35;6.78;;;;;;;-0.29;71.85;102807.50;3605697;39;20080;-65
2024/01/08 07:23:38;;;;;;;11.20;7.07;;;;;;;-0.29;72.43;102809.25;3609470;39;20048;-63
2024/01/08 07:26:04;;;;;;;9.15;6.55;;;;;;;-0.30;71.88;102811.03;3607656;39;20095;-63
2024/01/08 07:28:29;;;;;;;10.70;6.63;;;;;;;-0.25;72.77;102816.41;3603630;39;20399;-63
2024/01/08 07:30:55;;;;;;;10.45;6.82;;;;;;;-0.21;72.03;102818.22;3609191;39;20059;-63
2024/01/08 07:33:21;;;;;;;9.38;6.55;;;;;;;-0.20;72.96;102816.44;3610073;39;20055;-64
2024/01/08 07:35:47;;;;;;;8.95;6.55;;;;;;;-0.20;72.48;102830.53;3607773;39;20054;-63
2024/01/08 07:38:13;;;;;;;9.43;6.43;;;;;;;-0.15;72.45;102828.00;3608487;39;20062;-63
2024/01/08 07:40:38;;;;;;;9.63;6.78;;;;;;;-0.14;71.71;102828.00;3606628;39;20058;-63
2024/01/08 07:43:04;;;;;;;9.95;6.55;;;;;;;-0.12;72.54;102825.41;3612535;39;20050;-64
2024/01/08 07:45:29;;;;;;;8.18;6.07;;;;;;;-0.10;72.23;102839.50;3606512;39;20059;-64
2024/01/08 07:47:56;;;;;;;8.85;6.88;;;;;;;-0.12;71.55;102831.56;3609639;39;20071;-64
2024/01/08 07:50:22;;;;;;;10.13;6.50;;;;;;;-0.02;72.45;102840.50;3608275;39;20063;-64
2024/01/08 07:52:48;;;;;;;9.10;7.00;;;;;;;-0.03;71.30;102844.91;3596936;39;20054;-64
2024/01/08 07:55:13;;;;;;;8.50;6.85;;;;;;;-0.04;71.66;102842.22;3605869;39;20047;-63
2024/01/08 07:57:39;;;;;;;10.05;6.72;;;;;;;-0.03;71.72;102841.38;3605546;39;20059;-64
2024/01/08 08:00:09;;;;;;;8.30;6.47;;;;;;;-0.02;70.51;102837.88;3607783;39;20039;-64
2024/01/08 08:02:35;;;;;;;9.18;6.28;;;;;;;-0.03;71.58;102830.81;3607819;39;20083;-64
2024/01/08 08:05:01;;;;;;;7.32;6.03;;;;;;;-0.02;70.98;102837.88;3606906;39;20054;-64
2024/01/08 08:07:28;;;;;;;9.00;6.78;;;;;;;0.03;71.12;102832.63;3610440;39;20081;-63
2024/01/08 08:09:54;;;;;;;8.82;6.50;;;;;;;-0.34;70.84;102785.44;3611575;39;20054;-64
2024/01/08 08:12:20;;;;;;;7.18;5.68;;;;;;;-0.05;70.42;102837.81;3611440;39;20066;-64
2024/01/08 08:14:49;;;;;;;9.98;6.57;;;;;;;0.04;71.03;102843.25;3612074;39;20087;-63
2024/01/08 08:17:16;;;;;;;8.40;5.63;;;;;;;0.07;70.60;102838.00;3611892;39;20051;-64
2024/01/08 08:19:42;;;;;;;8.38;5.90;;;;;;;0.09;70.56;102838.88;3613173;39;20444;-63
2024/01/08 08:22:11;;;;;;;8.10;5.30;;;;;;;0.14;69.02;102845.16;3611078;39;20042;-63
2024/01/08 08:24:41;;;;;;;10.15;5.53;;;;;;;0.06;68.58;102851.19;3608175;39;20047;-63
2024/01/08 08:27:12;;;;;;;6.57;5.43;;;;;;;0.13;69.33;102848.66;3608424;39;20434;-62
2024/01/08 08:29:38;;;;;;;7.70;6.25;;;;;;;0.10;69.58;102837.16;3610371;39;20076;-63
2024/01/08 08:32:05;;;;;;;10.15;5.90;;;;;;;0.17;69.04;102844.31;3613552;39;20475;-63
2024/01/08 08:34:31;;;;;;;8.02;5.95;;;;;;;-0.14;68.97;102784.81;3610214;39;20250;-63
2024/01/08 08:36:57;;;;;;;8.52;5.75;;;;;;;0.19;68.41;102848.75;3598737;39;20405;-63
2024/01/08 08:39:22;;;;;;;8.30;5.32;;;;;;;0.25;70.14;102847.03;3608611;39;20330;-63
2024/01/08 08:41:48;;;;;;;8.07;5.45;;;;;;;0.30;68.83;102850.66;3612000;39;20059;-63
2024/01/08 08:44:14;;;;;;;7.72;5.50;;;;;;;0.27;68.85;102856.78;3612675;39;20058;-63
2024/01/08 08:46:39;;;;;;;7.90;5.55;;;;;;;-0.02;67.51;102809.69;3611358;39;20051;-63
2024/01/08 08:49:06;;;;;;;6.90;5.45;;;;;;;0.23;68.83;102853.22;3609204;39;20321;-63
2024/01/08 08:51:34;;;;;;;6.68;5.45;;;;;;;0.23;68.95;102853.22;3595887;39;20049;-62
2024/01/08 08:54:03;;;;;;;8.65;5.70;;;;;;;0.24;68.75;102856.72;3597870;39;20315;-63
2024/01/08 08:56:35;;;;;;;7.65;5.13;;;;;;;0.23;70.18;102860.25;3606864;39;20051;-63
2024/01/08 08:59:02;;;;;;;5.72;5.15;;;;;;;0.27;69.32;102863.81;3607578;39;20063;-63
2024/01/08 09:01:28;;;;;;;7.80;5.28;;;;;;;0.28;70.09;102868.25;3605148;39;20342;-63
2024/01/08 09:03:55;;;;;;;5.75;4.75;;;;;;;0.28;70.05;102853.25;3606741;39;20057;-63
2024/01/08 09:06:27;;;;;;;8.85;5.72;;;;;;;0.28;70.36;102850.59;3610586;39;20043;-63
2024/01/08 09:08:54;;;;;;;6.40;5.03;;;;;;;0.01;69.74;102819.41;3611391;39;20151;-63
2024/01/08 09:11:20;;;;;;;9.40;5.40;;;;;;;0.23;69.97;102862.91;3610804;39;20275;-63
2024/01/08 09:13:47;;;;;;;8.77;5.90;;;;;;;0.02;71.53;102823.81;3612814;39;20077;-63
2024/01/08 09:16:14;;;;;;;6.72;5.35;;;;;;;0.23;71.70;102871.72;3612924;39;20062;-64
2024/01/08 09:18:43;;;;;;;7.13;5.07;;;;;;;-0.04;70.98;102818.44;3609798;39;20051;-63
2024/01/08 09:21:10;;;;;;;7.00;5.47;;;;;;;0.15;71.24;102873.34;3608195;39;20279;-64
2024/01/08 09:23:36;;;;;;;8.00;5.07;;;;;;;0.15;71.63;102873.34;3608223;39;20059;-64
2024/01/08 09:26:02;;;;;;;6.95;5.10;;;;;;;0.16;71.70;102869.88;3611362;39;20435;-65
2024/01/08 09:28:28;;;;;;;6.30;5.57;;;;;;;0.16;71.49;102872.50;3607340;39;20054;-63
2024/01/08 09:30:54;;;;;;;8.13;5.32;;;;;;;0.15;72.09;102870.72;3609842;39;20537;-64
2024/01/08 09:33:20;;;;;;;8.13;5.60;;;;;;;0.14;71.52;102876.00;3611193;39;20410;-64
2024/01/08 09:35:45;;;;;;;10.65;6.68;;;;;;;0.18;71.34;102883.97;3611509;39;20346;-64
2024/01/08 09:38:11;;;;;;;7.25;5.50;;;;;;;0.17;71.37;102882.22;3608952;39;20050;-62
2024/01/08 09:40:37;;;;;;;8.98;5.65;;;;;;;0.17;71.04;102884.84;3609096;39;20066;-61
2024/01/08 09:43:09;;;;;;;8.82;5.35;;;;;;;-0.55;71.26;102763.97;3611665;39;20131;-62
2024/01/08 09:45:47;;;;;;;6.38;5.43;;;;;;;0.20;71.04;102890.19;3611810;39;20147;-64
2024/01/08 09:48:13;;;;;;;8.35;5.65;;;;;;;0.19;71.83;102896.34;3609972;39;20051;-61
2024/01/08 09:50:39;;;;;;;9.05;6.13;;;;;;;0.16;72.75;102892.75;3611073;39;20061;-62
2024/01/08 09:53:05;;;;;;;8.35;5.68;;;;;;;0.16;74.66;102891.03;3610268;39;20051;-62
2024/01/08 09:55:35;;;;;;;9.00;6.45;;;;;;;0.14;74.82;102892.75;3609996;39;20132;-63
2024/01/08 09:58:01;;;;;;;8.52;6.25;;;;;;;0.10;75.55;102885.66;3610204;39;20059;-63
2024/01/08 10:00:26;;;;;;;7.82;6.20;;;;;;;0.08;77.27;102894.41;3609930;39;20051;-63
2024/01/08 10:02:57;;;;;;;9.32;6.45;;;;;;;0.08;77.23;102882.06;3612424;39;20047;-63
2024/01/08 10:05:28;;;;;;;8.02;6.65;;;;;;;0.17;77.75;102903.38;3610076;39;20074;-63
2024/01/08 10:07:54;;;;;;;8.27;6.20;;;;;;;0.11;76.38;102884.75;3609752;39;20057;-62
2024/01/08 10:10:22;;;;;;;8.05;6.07;;;;;;;0.30;77.19;102885.03;3609124;39;20426;-63
2024/01/08 10:12:51;;;;;;;7.30;6.18;;;;;;;0.31;75.76;102881.50;3609086;39;20039;-63
2024/01/08 10:15:18;;;;;;;10.85;6.28;;;;;;;0.41;74.81;102886.03;3610895;39;20049;-63
2024/01/08 10:17:48;;;;;;;8.05;5.75;;;;;;;0.41;74.45;102878.13;3608988;39;20043;-63
2024/01/08 10:20:16;;;;;;;7.82;5.72;;;;;;;0.43;75.11;102885.22;3607999;39;20361;-62
2024/01/08 10:22:43;;;;;;;8.00;6.07;;;;;;;0.47;73.75;102886.13;3612717;39;20049;-63
2024/01/08 10:25:09;;;;;;;7.38;5.50;;;;;;;0.56;73.27;102885.38;3601387;39;20052;-63
2024/01/08 10:27:35;;;;;;;8.50;5.97;;;;;;;0.57;73.49;102871.25;3610404;39;20074;-63
2024/01/08 10:30:03;;;;;;;9.10;6.45;;;;;;;0.62;72.06;102883.69;3611164;39;20548;-63
2024/01/08 10:32:32;;;;;;;6.78;5.00;;;;;;;0.59;72.41;102865.13;3614404;39;20046;-63
2024/01/08 10:34:58;;;;;;;7.85;5.07;;;;;;;0.73;71.31;102883.84;3612674;39;20047;-63
2024/01/08 10:37:26;;;;;;;11.50;7.93;;;;;;;0.73;70.66;102872.34;3609768;39;20108;-63
2024/01/08 10:39:55;;;;;;;6.50;5.80;;;;;;;0.97;70.55;102869.97;3608766;39;20476;-63
2024/01/08 10:42:21;;;;;;;7.43;5.82;;;;;;;1.18;69.50;102865.78;3612145;39;20302;-64
2024/01/08 10:44:46;;;;;;;6.40;5.25;;;;;;;1.46;69.36;102867.81;3612378;39;20058;-63
2024/01/08 10:47:22;;;;;;;6.97;4.90;;;;;;;1.52;65.82;102857.28;3613480;39;20430;-63
2024/01/08 10:49:56;;;;;;;5.50;4.78;;;;;;;1.52;65.64;102862.56;3611056;39;20050;-64
2024/01/08 10:52:33;;;;;;;7.07;5.05;;;;;;;1.47;66.49;102864.28;3609665;39;20117;-64
2024/01/08 10:55:00;;;;;;;7.82;4.93;;;;;;;1.48;64.96;102866.06;3609897;39;20054;-64
2024/01/08 10:57:51;;;;;;;5.22;4.72;;;;;;;1.37;63.98;102855.38;3608861;39;20293;-64
2024/01/08 11:00:18;;;;;;;6.18;4.60;;;;;;;1.25;65.02;102847.31;3610972;39;20431;-64
2024/01/08 11:02:45;;;;;;;5.70;4.50;;;;;;;1.48;63.91;102858.09;3603556;39;20051;-64
2024/01/08 11:05:13;;;;;;;7.47;4.43;;;;;;;1.55;64.34;102867.88;3611994;39;20062;-64
2024/01/08 11:07:42;;;;;;;6.70;4.45;;;;;;;1.66;62.53;102860.03;3612591;39;20422;-64
2024/01/08 11:10:11;;;;;;;5.80;4.45;;;;;;;1.65;61.28;102857.34;3614155;39;20051;-64
2024/01/08 11:12:42;;;;;;;5.18;4.40;;;;;;;1.55;61.92;102862.56;3611048;39;20055;-64
2024/01/08 11:15:15;;;;;;;4.38;3.97;;;;;;;1.47;62.62;102864.28;3614446;39;20059;-64
2024/01/08 11:17:51;;;;;;;5.05;4.32;;;;;;;1.42;61.95;102854.50;3613082;39;20063;-64
2024/01/08 11:20:46;;;;;;;4.88;4.18;;;;;;;1.35;61.39;102862.41;3612581;39;20456;-64
2024/01/08 11:23:33;;;;;;;;;;;;;;;1.26;61.34;102858.78;3612192;39;20043;-64
2024/01/08 11:26:25;;;;;;;5.28;4.20;;;;;;;1.18;60.44;102861.38;3610851;39;20363;-64